Terminal Aerodrome Forecast
Issued by NWS

Home | Current Version | Previous Version | Text Only | Print | Product List | Glossary On
Versions: 1 2 3 4 5 6 7 8 9 10 11 12 13 14 15 16 17 18 19 20 21 22
000
FTUS43 KGRR 231230 AAA
TAFLAN
TAF AMD
KLAN 231230Z 2313/2412 34008KT 2SM -TSRA BR OVC012CB
     FM231315 32008KT P6SM OVC020
     FM231800 29012KT P6SM BKN035
     FM240000 27008KT P6SM SCT050=

USA.gov is the U.S. government's official web portal to all federal, state and local government web resources and services.